Terminal Aerodrome Forecast
Issued by NWS

Home | Current Version | Previous Version | Text Only | Print | Product List | Glossary Off
Versions: 1 2 3 4 5 6 7 8 9 10 11 12 13 14 15 16 17 18 19 20 21 22

000
FTUS43 KGRB 222338
TAFAUW
TAF
KAUW 222338Z 2300/2324 10006KT P6SM -SN OVC050
     FM230200 10007KT 4SM -SN OVC035 WS020/13035KT
     FM230400 11008KT 2SM -SN OVC028 WS020/14040KT
     FM230600 13005KT 1 1/2SM -SN BR OVC008 WS020/18035KT
     FM231100 13005KT 1SM -FZDZSN BR OVC008 WS020/18035KT
     FM231400 26007G16KT P6SM OVC009
     FM232100 28008KT P6SM BKN010=

USA.gov is the U.S. government's official web portal to all federal, state and local government web resources and services.